Crewe, United Kingdom
Current Conditions -  °F | °C
As of 12:50 PM on Tuesday 21 Oct 2014 (Local Time) from EGCC Reporting Station
Scattered Clouds Scattered Clouds  
Wind Chill: 52°   Ceiling: Unl
Heat Index: 52°   Visibility: 6mi
Dew Point: 39°   Wind: 28mph
Humidity: 62%   Direction: 300°WNW
Pressure: 29.62"   Gusts: 44mph
Location:  53.1°N, 2.44°W
Report Text: EGCC 211150Z 30024G38KT 270V330 9999 SCT034CB 11/04 Q1003 TEMPO SHRA
Loading
Personal Weather Stations






























Interactive Weather Map
Tropical Storm Tracking
New forecast layout! Learn more

10-Day Weather Forecast

Advertisements
Track Severe Weather on mobile